createdAt,value
2022-10-18T00:00:10.812Z,16.53
2022-10-18T00:00:22.722Z,16.54
2022-10-18T00:00:34.799Z,16.55
2022-10-18T00:00:47.875Z,16.56
2022-10-18T00:01:00.091Z,16.56
2022-10-18T00:01:12.011Z,16.55
2022-10-18T00:01:23.897Z,16.55
2022-10-18T00:01:35.843Z,16.53
2022-10-18T00:01:47.820Z,16.51
2022-10-18T00:01:59.772Z,16.48
2022-10-18T00:02:11.995Z,16.48
2022-10-18T00:02:24.067Z,16.47
2022-10-18T00:02:36.048Z,16.42
2022-10-18T00:02:48.037Z,16.40
2022-10-18T00:03:00.004Z,16.36
2022-10-18T00:03:11.886Z,16.34
2022-10-18T00:03:23.835Z,16.31
2022-10-18T00:03:36.343Z,16.31
2022-10-18T00:03:48.340Z,16.34
2022-10-18T00:04:00.223Z,16.37
2022-10-18T00:04:12.265Z,16.37
2022-10-18T00:04:24.192Z,16.37
2022-10-18T00:04:36.369Z,16.35
2022-10-18T00:04:48.250Z,16.32
2022-10-18T00:05:00.251Z,16.31
2022-10-18T00:05:12.180Z,16.32
2022-10-18T00:05:24.097Z,16.21
2022-10-18T00:05:36.026Z,16.20
2022-10-18T00:05:49.477Z,16.21
2022-10-18T00:06:02.186Z,16.14
2022-10-18T00:06:14.206Z,16.12
2022-10-18T00:06:26.098Z,16.15
2022-10-18T00:06:41.132Z,16.13
2022-10-18T00:06:55.437Z,16.10
2022-10-18T00:07:07.421Z,16.09
2022-10-18T00:07:19.327Z,16.09
2022-10-18T00:07:31.355Z,16.12
2022-10-18T00:07:43.483Z,16.14
2022-10-18T00:07:55.369Z,16.18
2022-10-18T00:08:07.276Z,16.19
2022-10-18T00:08:20.222Z,16.19
2022-10-18T00:08:32.504Z,16.22
2022-10-18T00:08:44.427Z,16.23
2022-10-18T00:08:56.406Z,16.23
2022-10-18T00:09:08.575Z,16.25
2022-10-18T00:09:20.463Z,16.27
2022-10-18T00:09:32.366Z,16.30
2022-10-18T00:09:44.249Z,16.33
2022-10-18T00:09:56.149Z,16.37
2022-10-18T00:10:08.531Z,16.40
2022-10-18T00:10:20.534Z,16.42
2022-10-18T00:10:32.522Z,16.45
2022-10-18T00:10:45.192Z,16.45
2022-10-18T00:10:57.084Z,16.47
2022-10-18T00:11:09.227Z,16.48
2022-10-18T00:11:21.099Z,16.48
2022-10-18T00:11:33.311Z,16.47
2022-10-18T00:11:45.272Z,16.44
2022-10-18T00:11:57.540Z,16.43
2022-10-18T00:12:09.570Z,16.45
2022-10-18T00:12:21.467Z,16.45
2022-10-18T00:12:35.403Z,16.45
2022-10-18T00:13:04.112Z,16.48
2022-10-18T00:13:16.984Z,16.49
2022-10-18T00:13:28.906Z,16.51
2022-10-18T00:13:40.844Z,16.53
2022-10-18T00:13:52.784Z,16.55
2022-10-18T00:14:05.011Z,16.58
2022-10-18T00:14:17.065Z,16.61
2022-10-18T00:14:28.949Z,16.62
2022-10-18T00:14:40.854Z,16.62
2022-10-18T00:14:52.817Z,16.63
2022-10-18T00:15:07.562Z,16.64
2022-10-18T00:15:19.536Z,16.64
2022-10-18T00:15:31.416Z,16.65
2022-10-18T00:15:58.104Z,16.67
2022-10-18T00:16:16.035Z,16.69
2022-10-18T00:16:27.961Z,16.72
2022-10-18T00:16:39.859Z,16.72
2022-10-18T00:16:51.762Z,16.71
2022-10-18T00:17:04.045Z,16.71
2022-10-18T00:17:15.995Z,16.72
2022-10-18T00:17:28.119Z,16.71
2022-10-18T00:17:40.225Z,16.72
2022-10-18T00:17:52.092Z,16.71
2022-10-18T00:18:04.101Z,16.71
2022-10-18T00:18:16.026Z,16.71
2022-10-18T00:18:28.479Z,16.72
2022-10-18T00:18:41.101Z,16.69
2022-10-18T00:18:53.112Z,16.64
2022-10-18T00:19:05.002Z,16.64
2022-10-18T00:19:16.879Z,16.65
2022-10-18T00:19:29.473Z,16.65
2022-10-18T00:19:41.559Z,16.66
2022-10-18T00:19:53.472Z,16.66
2022-10-18T00:20:06.756Z,16.66
2022-10-18T00:20:18.669Z,16.65
2022-10-18T00:20:30.723Z,16.66
2022-10-18T00:20:42.623Z,16.67
2022-10-18T00:21:03.563Z,16.67
2022-10-18T00:21:18.481Z,16.71
2022-10-18T00:21:30.435Z,16.73
2022-10-18T00:21:56.551Z,16.72
2022-10-18T00:22:08.483Z,16.73
2022-10-18T00:22:20.370Z,16.73
2022-10-18T00:22:35.405Z,16.74
2022-10-18T00:22:47.392Z,16.75
2022-10-18T00:22:59.283Z,16.76
2022-10-18T00:23:11.434Z,16.76
2022-10-18T00:23:23.347Z,16.75
2022-10-18T00:23:36.191Z,16.77
2022-10-18T00:23:49.403Z,16.76
2022-10-18T00:24:01.361Z,16.75
2022-10-18T00:24:13.253Z,16.75
2022-10-18T00:24:25.203Z,16.77
2022-10-18T00:24:37.119Z,16.76
2022-10-18T00:24:49.132Z,16.77
2022-10-18T00:25:01.029Z,16.78
2022-10-18T00:25:12.945Z,16.81
2022-10-18T00:25:24.841Z,16.82
2022-10-18T00:25:36.756Z,16.84
2022-10-18T00:25:48.651Z,16.88
2022-10-18T00:26:06.175Z,16.89
2022-10-18T00:26:27.310Z,16.93
2022-10-18T00:26:39.191Z,16.92
2022-10-18T00:26:51.116Z,16.94
2022-10-18T00:27:03.004Z,16.95
2022-10-18T00:27:14.924Z,16.96
2022-10-18T00:27:29.808Z,16.95
2022-10-18T00:27:41.738Z,16.93
2022-10-18T00:27:53.641Z,16.93
2022-10-18T00:28:05.524Z,16.92
2022-10-18T00:28:17.393Z,16.91
2022-10-18T00:28:29.506Z,16.92
2022-10-18T00:28:42.256Z,16.91
2022-10-18T00:28:59.858Z,16.93
2022-10-18T00:29:15.198Z,16.92
2022-10-18T00:29:27.106Z,16.89
2022-10-18T00:29:39.057Z,16.89
2022-10-18T00:29:53.846Z,16.87
2022-10-18T00:30:06.352Z,16.85
2022-10-18T00:30:18.351Z,16.86
2022-10-18T00:30:30.254Z,16.86
2022-10-18T00:30:42.176Z,16.85
2022-10-18T00:30:54.114Z,16.85
2022-10-18T00:31:23.526Z,16.89
2022-10-18T00:31:37.613Z,16.95
2022-10-18T00:31:49.509Z,16.97
2022-10-18T00:32:01.574Z,17.00
2022-10-18T00:32:13.698Z,17.02
2022-10-18T00:32:26.523Z,17.05
2022-10-18T00:32:40.051Z,17.06
2022-10-18T00:32:51.992Z,17.06
2022-10-18T00:33:04.308Z,17.07
2022-10-18T00:33:16.198Z,17.07
2022-10-18T00:33:28.075Z,17.07
2022-10-18T00:33:40.683Z,17.09
2022-10-18T00:33:58.537Z,17.05
2022-10-18T00:34:14.775Z,16.98
2022-10-18T00:34:26.754Z,16.97
2022-10-18T00:34:40.163Z,16.94
2022-10-18T00:34:52.209Z,16.94
2022-10-18T00:35:04.886Z,16.91
2022-10-18T00:35:16.867Z,16.92
2022-10-18T00:35:28.825Z,16.92
2022-10-18T00:35:40.719Z,16.94
2022-10-18T00:35:52.626Z,16.95
2022-10-18T00:36:04.846Z,16.94
2022-10-18T00:36:17.011Z,16.95
2022-10-18T00:36:30.388Z,16.96
2022-10-18T00:36:43.522Z,16.97
2022-10-18T00:36:55.453Z,16.94
2022-10-18T00:37:07.394Z,16.92
2022-10-18T00:37:19.873Z,16.90
2022-10-18T00:37:32.246Z,16.91
2022-10-18T00:37:44.186Z,16.91
2022-10-18T00:37:56.082Z,16.91
2022-10-18T00:38:07.964Z,16.90
2022-10-18T00:38:19.842Z,16.90
2022-10-18T00:38:31.754Z,16.91
2022-10-18T00:38:44.493Z,16.89
2022-10-18T00:38:56.908Z,16.89
2022-10-18T00:39:13.990Z,16.91
2022-10-18T00:39:25.909Z,16.93
2022-10-18T00:39:37.792Z,16.93
2022-10-18T00:39:50.041Z,16.95
2022-10-18T00:40:02.172Z,16.96
2022-10-18T00:40:14.050Z,16.96
2022-10-18T00:40:25.945Z,16.99
2022-10-18T00:40:37.833Z,17.01
2022-10-18T00:40:49.740Z,17.02
2022-10-18T00:41:02.300Z,17.04
2022-10-18T00:41:17.640Z,17.05
2022-10-18T00:41:32.395Z,17.07
2022-10-18T00:41:45.163Z,17.07
2022-10-18T00:41:57.114Z,17.09
2022-10-18T00:42:16.716Z,17.11
2022-10-18T00:42:34.146Z,17.14
2022-10-18T00:42:46.203Z,17.16
2022-10-18T00:42:58.105Z,17.17
2022-10-18T00:43:15.834Z,17.19
2022-10-18T00:43:27.748Z,17.17
2022-10-18T00:44:07.041Z,17.17
2022-10-18T00:44:18.856Z,17.10
2022-10-18T00:44:30.697Z,17.08
2022-10-18T00:44:42.563Z,17.08
2022-10-18T00:45:04.857Z,17.02
2022-10-18T00:45:20.482Z,17.02
2022-10-18T00:45:32.373Z,17.02
2022-10-18T00:45:44.285Z,17.04
2022-10-18T00:45:56.240Z,17.06
2022-10-18T00:46:08.146Z,17.05
2022-10-18T00:46:20.380Z,17.05
2022-10-18T00:46:37.890Z,17.07
2022-10-18T00:46:51.303Z,17.08
2022-10-18T00:47:08.610Z,17.11
2022-10-18T00:47:20.639Z,17.10
2022-10-18T00:47:34.663Z,17.09
2022-10-18T00:47:51.789Z,17.09
2022-10-18T00:48:04.593Z,17.11
2022-10-18T00:48:20.514Z,17.12
2022-10-18T00:48:32.409Z,17.13
2022-10-18T00:48:44.427Z,17.15
2022-10-18T00:48:59.485Z,17.17
2022-10-18T00:49:15.434Z,17.19
2022-10-18T00:49:34.081Z,17.22
2022-10-18T00:49:51.452Z,17.23
2022-10-18T00:50:05.381Z,17.20
2022-10-18T00:50:18.821Z,17.18
2022-10-18T00:50:33.482Z,17.19
2022-10-18T00:50:47.391Z,17.19
2022-10-18T00:50:59.326Z,17.22
2022-10-18T00:51:11.833Z,17.22
2022-10-18T00:51:28.651Z,17.18
2022-10-18T00:52:04.768Z,17.10
2022-10-18T00:52:21.120Z,17.13
2022-10-18T00:52:44.190Z,17.13
2022-10-18T00:52:59.479Z,17.14
2022-10-18T00:53:17.706Z,17.13
2022-10-18T00:53:29.739Z,17.13
2022-10-18T00:53:41.678Z,17.12
2022-10-18T00:53:53.699Z,17.13
2022-10-18T00:54:05.862Z,17.13
2022-10-18T00:54:20.031Z,17.15
2022-10-18T00:54:34.779Z,17.13
2022-10-18T00:54:48.507Z,17.13
2022-10-18T00:55:00.836Z,17.15
2022-10-18T00:55:13.095Z,17.16
2022-10-18T00:55:26.176Z,17.16
2022-10-18T00:55:38.776Z,17.14
2022-10-18T00:55:50.862Z,17.15
2022-10-18T00:56:02.831Z,17.13
2022-10-18T00:56:14.911Z,17.14
2022-10-18T00:56:26.955Z,17.12
2022-10-18T00:56:39.386Z,17.12
2022-10-18T00:56:51.531Z,17.12
2022-10-18T00:57:04.725Z,17.13
2022-10-18T00:57:17.220Z,17.13
2022-10-18T00:57:29.325Z,17.15
2022-10-18T00:57:43.145Z,17.15
2022-10-18T00:57:56.202Z,17.19
2022-10-18T00:58:09.395Z,17.20
2022-10-18T00:58:21.381Z,17.24
2022-10-18T00:58:34.295Z,17.27
2022-10-18T00:58:48.501Z,17.28
2022-10-18T00:59:00.669Z,17.28
2022-10-18T00:59:16.078Z,17.28
2022-10-18T00:59:29.148Z,17.28
2022-10-18T00:59:43.133Z,17.28
2022-10-18T00:59:55.479Z,17.28
2022-10-18T01:00:09.869Z,17.29
2022-10-18T01:00:21.979Z,17.28
2022-10-18T01:00:38.591Z,17.27
2022-10-18T01:00:50.640Z,17.26
2022-10-18T01:01:02.616Z,17.25
2022-10-18T01:01:14.732Z,17.25
2022-10-18T01:01:28.427Z,17.26
2022-10-18T01:01:40.746Z,17.25
2022-10-18T01:01:53.369Z,17.25
2022-10-18T01:02:06.819Z,17.26
2022-10-18T01:02:18.934Z,17.26
2022-10-18T01:02:32.361Z,17.26
2022-10-18T01:02:46.673Z,17.27
2022-10-18T01:02:59.225Z,17.27
2022-10-18T01:03:11.159Z,17.26
2022-10-18T01:03:23.098Z,17.28
2022-10-18T01:03:36.202Z,17.28
2022-10-18T01:03:48.645Z,17.31
2022-10-18T01:04:00.837Z,17.32
2022-10-18T01:04:15.606Z,17.33
2022-10-18T01:04:27.532Z,17.34
2022-10-18T01:04:39.415Z,17.33
2022-10-18T01:04:51.370Z,17.35
2022-10-18T01:05:04.778Z,17.35
2022-10-18T01:05:19.131Z,17.38
2022-10-18T01:05:31.882Z,17.38
2022-10-18T01:05:47.388Z,17.39
2022-10-18T01:05:59.294Z,17.40
2022-10-18T01:06:11.228Z,17.42
2022-10-18T01:06:23.855Z,17.44
2022-10-18T01:06:50.349Z,17.46
2022-10-18T01:07:26.920Z,17.48
2022-10-18T01:07:55.224Z,17.50
2022-10-18T01:08:24.969Z,17.50
2022-10-18T01:08:44.451Z,17.51
2022-10-18T01:09:14.445Z,17.52
2022-10-18T01:09:42.147Z,17.49
2022-10-18T01:09:53.985Z,17.48
2022-10-18T01:10:23.861Z,17.42
2022-10-18T01:11:05.033Z,17.38
2022-10-18T01:11:44.424Z,17.36
2022-10-18T01:12:40.421Z,17.39
2022-10-18T01:13:36.446Z,17.50
2022-10-18T01:13:50.872Z,17.52
2022-10-18T01:14:38.437Z,17.53
2022-10-18T01:15:00.156Z,17.55
2022-10-18T01:15:20.000Z,17.58
2022-10-18T01:16:21.849Z,17.53
2022-10-18T01:16:44.399Z,17.52
2022-10-18T01:17:03.650Z,17.51
2022-10-18T01:17:25.700Z,17.49
2022-10-18T01:17:43.173Z,17.47
2022-10-18T01:18:30.082Z,17.43
2022-10-18T01:18:49.776Z,17.42
2022-10-18T01:19:14.058Z,17.42
2022-10-18T01:20:06.461Z,17.45
2022-10-18T01:20:39.800Z,17.47
2022-10-18T01:21:42.912Z,17.51
2022-10-18T01:22:05.254Z,17.55
2022-10-18T01:22:39.118Z,17.52
2022-10-18T01:23:00.182Z,17.53
2022-10-18T01:23:23.737Z,17.56
2022-10-18T01:24:00.032Z,17.61
2022-10-18T01:24:45.592Z,17.60
2022-10-18T01:25:10.361Z,17.61
2022-10-18T01:25:47.950Z,17.64
2022-10-18T01:26:41.797Z,17.67
2022-10-18T01:27:23.029Z,17.66
2022-10-18T01:28:27.313Z,17.65
2022-10-18T01:29:08.724Z,17.67
2022-10-18T01:29:37.585Z,17.67
2022-10-18T01:29:55.505Z,17.65
2022-10-18T01:30:07.347Z,17.64
2022-10-18T01:30:30.466Z,17.64
2022-10-18T01:30:57.816Z,17.65
2022-10-18T01:31:18.800Z,17.67
2022-10-18T01:31:37.999Z,17.66
2022-10-18T01:31:59.538Z,17.67
2022-10-18T01:32:18.944Z,17.67
2022-10-18T01:32:39.587Z,17.69
2022-10-18T01:32:54.839Z,17.71
2022-10-18T01:33:37.580Z,17.71
2022-10-18T01:33:53.937Z,17.71
2022-10-18T01:34:10.036Z,17.69
2022-10-18T01:34:25.738Z,17.65
2022-10-18T01:34:43.046Z,17.68
2022-10-18T01:35:10.911Z,17.71
2022-10-18T01:35:31.357Z,17.72
2022-10-18T01:35:54.176Z,17.74
2022-10-18T01:36:11.689Z,17.72
2022-10-18T01:36:27.763Z,17.73
2022-10-18T01:36:43.972Z,17.73
2022-10-18T01:36:57.518Z,17.73
2022-10-18T01:37:14.213Z,17.74
2022-10-18T01:37:29.186Z,17.73
2022-10-18T01:37:45.034Z,17.73
2022-10-18T01:38:00.845Z,17.71
2022-10-18T01:38:17.818Z,17.69
2022-10-18T01:38:31.901Z,17.68
2022-10-18T01:38:45.303Z,17.69
2022-10-18T01:39:00.968Z,17.72
2022-10-18T01:39:17.771Z,17.73
2022-10-18T01:39:36.297Z,17.72
2022-10-18T01:39:49.824Z,17.73
2022-10-18T01:40:06.647Z,17.70
2022-10-18T01:40:22.120Z,17.71
2022-10-18T01:40:35.640Z,17.71
2022-10-18T01:40:50.631Z,17.72
2022-10-18T01:41:05.270Z,17.74
2022-10-18T01:41:20.433Z,17.75
2022-10-18T01:41:35.643Z,17.76
2022-10-18T01:41:51.214Z,17.75
2022-10-18T01:42:07.443Z,17.69
2022-10-18T01:42:20.643Z,17.71
2022-10-18T01:42:32.824Z,17.70
2022-10-18T01:42:47.309Z,17.71
2022-10-18T01:43:00.681Z,17.71
2022-10-18T01:43:14.536Z,17.71
2022-10-18T01:43:29.979Z,17.69
2022-10-18T01:43:46.305Z,17.71
2022-10-18T01:44:02.225Z,17.70
2022-10-18T01:44:20.964Z,17.70
2022-10-18T01:44:34.860Z,17.72
2022-10-18T01:44:50.526Z,17.70
2022-10-18T01:45:04.338Z,17.67
2022-10-18T01:45:18.885Z,17.66
2022-10-18T01:45:32.131Z,17.67
2022-10-18T01:45:44.372Z,17.64
2022-10-18T01:45:58.454Z,17.58
2022-10-18T01:46:14.456Z,17.54
2022-10-18T01:46:28.043Z,17.53
2022-10-18T01:46:41.652Z,17.54
2022-10-18T01:46:56.283Z,17.54
2022-10-18T01:47:13.164Z,17.57
2022-10-18T01:47:25.478Z,17.57
2022-10-18T01:47:37.706Z,17.57
2022-10-18T01:47:51.066Z,17.59
2022-10-18T01:48:03.580Z,17.60
2022-10-18T01:48:16.387Z,17.63
2022-10-18T01:48:30.000Z,17.62
2022-10-18T01:48:42.174Z,17.63
2022-10-18T01:48:55.215Z,17.63
2022-10-18T01:49:07.265Z,17.65
2022-10-18T01:49:19.133Z,17.69
2022-10-18T01:49:31.032Z,17.70
2022-10-18T01:49:43.040Z,17.70
2022-10-18T01:50:02.953Z,17.70
2022-10-18T01:50:14.910Z,17.72
2022-10-18T01:50:31.847Z,17.73
2022-10-18T01:50:43.838Z,17.74
2022-10-18T01:50:55.942Z,17.75
2022-10-18T01:51:09.130Z,17.76
2022-10-18T01:51:29.250Z,17.79
2022-10-18T01:51:41.153Z,17.78
2022-10-18T01:51:53.861Z,17.76
2022-10-18T01:52:05.860Z,17.75
2022-10-18T01:52:17.789Z,17.72
2022-10-18T01:52:29.808Z,17.72
2022-10-18T01:52:51.448Z,17.71
2022-10-18T01:53:03.352Z,17.71
2022-10-18T01:53:23.119Z,17.71
2022-10-18T01:53:35.235Z,17.70
2022-10-18T01:53:47.216Z,17.71
2022-10-18T01:53:59.986Z,17.73
2022-10-18T01:54:17.211Z,17.73
2022-10-18T01:54:34.613Z,17.76
2022-10-18T01:54:49.038Z,17.77
2022-10-18T01:55:03.218Z,17.77
2022-10-18T01:55:15.758Z,17.78
2022-10-18T01:55:41.957Z,17.79
2022-10-18T01:56:11.265Z,17.78
2022-10-18T01:56:35.172Z,17.81
2022-10-18T01:57:09.501Z,17.82
2022-10-18T01:57:32.229Z,17.82
2022-10-18T01:58:12.101Z,17.83
2022-10-18T01:58:46.786Z,17.81
2022-10-18T01:59:11.936Z,17.81
2022-10-18T01:59:39.160Z,17.84
2022-10-18T01:59:56.685Z,17.82
2022-10-18T02:00:16.600Z,17.81
2022-10-18T02:00:44.302Z,17.79
2022-10-18T02:01:06.724Z,17.76
2022-10-18T02:01:30.518Z,17.77
2022-10-18T02:02:00.449Z,17.72
2022-10-18T02:02:21.212Z,17.74
2022-10-18T02:02:55.070Z,17.74
2022-10-18T02:03:22.966Z,17.75
2022-10-18T02:03:41.103Z,17.77
2022-10-18T02:03:59.244Z,17.80
2022-10-18T02:04:33.351Z,17.79
2022-10-18T02:04:54.881Z,17.77
2022-10-18T02:05:38.722Z,17.76
2022-10-18T02:05:58.820Z,17.76
2022-10-18T02:06:19.253Z,17.76
2022-10-18T02:06:38.248Z,17.73
2022-10-18T02:06:58.047Z,17.70
2022-10-18T02:07:21.872Z,17.65
2022-10-18T02:07:51.972Z,17.62
2022-10-18T02:08:24.284Z,17.69
2022-10-18T02:09:10.978Z,17.77
2022-10-18T02:09:31.781Z,17.80
2022-10-18T02:09:53.874Z,17.81
2022-10-18T02:10:11.169Z,17.81
2022-10-18T02:10:31.550Z,17.81
2022-10-18T02:11:02.883Z,17.78
2022-10-18T02:11:16.271Z,17.80
2022-10-18T02:11:31.187Z,17.81
2022-10-18T02:11:44.995Z,17.81
2022-10-18T02:11:57.851Z,17.80
2022-10-18T02:12:14.297Z,17.80
2022-10-18T02:12:29.763Z,17.81
2022-10-18T02:12:44.797Z,17.80
2022-10-18T02:12:58.202Z,17.80
2022-10-18T02:13:16.659Z,17.80
2022-10-18T02:13:35.701Z,17.81
2022-10-18T02:13:59.834Z,17.82
2022-10-18T02:14:14.513Z,17.84
2022-10-18T02:14:27.427Z,17.86
2022-10-18T02:14:41.259Z,17.86
2022-10-18T02:14:53.302Z,17.86
2022-10-18T02:15:07.592Z,17.87
2022-10-18T02:15:27.982Z,17.85
2022-10-18T02:15:45.082Z,17.86
2022-10-18T02:16:01.292Z,17.89
2022-10-18T02:16:28.146Z,17.89
2022-10-18T02:16:46.720Z,17.90
2022-10-18T02:17:05.370Z,17.93
2022-10-18T02:17:20.498Z,17.94
2022-10-18T02:17:32.458Z,17.94
2022-10-18T02:17:46.146Z,17.95
2022-10-18T02:17:58.333Z,17.98
2022-10-18T02:18:25.868Z,17.98
2022-10-18T02:18:44.349Z,17.98
2022-10-18T02:19:05.243Z,17.98
2022-10-18T02:19:32.755Z,17.98
2022-10-18T02:19:49.265Z,17.96
2022-10-18T02:20:06.278Z,17.98
2022-10-18T02:20:22.163Z,18.01
2022-10-18T02:20:36.459Z,18.01
2022-10-18T02:20:48.966Z,18.02
2022-10-18T02:21:02.977Z,18.02
2022-10-18T02:21:19.207Z,18.04
2022-10-18T02:21:32.305Z,18.06
2022-10-18T02:21:47.308Z,18.05
2022-10-18T02:22:00.512Z,18.07
2022-10-18T02:22:13.684Z,18.07
2022-10-18T02:22:31.237Z,18.08
2022-10-18T02:22:45.984Z,18.06
2022-10-18T02:23:01.309Z,18.04
2022-10-18T02:23:16.601Z,18.03
2022-10-18T02:23:43.253Z,18.04
2022-10-18T02:23:58.319Z,18.04
2022-10-18T02:24:12.876Z,18.04
2022-10-18T02:24:33.323Z,18.04
2022-10-18T02:24:51.048Z,18.03
2022-10-18T02:25:10.228Z,18.06
2022-10-18T02:25:25.342Z,18.06
2022-10-18T02:25:38.860Z,18.07
2022-10-18T02:25:51.711Z,18.08
2022-10-18T02:26:04.002Z,18.08
2022-10-18T02:26:16.776Z,18.07
2022-10-18T02:26:29.554Z,18.07
2022-10-18T02:26:41.945Z,18.05
2022-10-18T02:26:54.076Z,18.06
2022-10-18T02:27:06.141Z,18.05
2022-10-18T02:27:18.373Z,18.06
2022-10-18T02:27:30.563Z,18.06
2022-10-18T02:27:42.769Z,18.06
2022-10-18T02:27:55.326Z,18.06
2022-10-18T02:28:07.634Z,18.07
2022-10-18T02:28:20.033Z,18.08
2022-10-18T02:28:32.136Z,18.09
2022-10-18T02:28:45.793Z,18.10
2022-10-18T02:28:57.806Z,18.09
2022-10-18T02:29:10.315Z,18.09
2022-10-18T02:29:22.866Z,18.11
2022-10-18T02:29:35.330Z,18.12
2022-10-18T02:29:47.335Z,18.11
2022-10-18T02:29:59.314Z,18.11
2022-10-18T02:30:12.660Z,18.12
2022-10-18T02:30:33.230Z,18.12
2022-10-18T02:30:55.945Z,18.14
2022-10-18T02:31:29.158Z,18.13
2022-10-18T02:31:46.255Z,18.14
2022-10-18T02:32:18.946Z,18.15
2022-10-18T02:32:38.430Z,18.16
2022-10-18T02:33:04.024Z,18.18
2022-10-18T02:33:23.755Z,18.19
2022-10-18T02:33:45.740Z,18.17
2022-10-18T02:34:03.085Z,18.17
2022-10-18T02:34:29.577Z,18.16
2022-10-18T02:34:47.579Z,18.17
2022-10-18T02:35:01.325Z,18.17
2022-10-18T02:35:29.409Z,18.17
2022-10-18T02:35:47.198Z,18.13
2022-10-18T02:36:23.890Z,18.14
2022-10-18T02:36:57.916Z,18.13
2022-10-18T02:37:11.635Z,18.13
2022-10-18T02:37:46.938Z,18.17
2022-10-18T02:37:59.517Z,18.19
2022-10-18T02:38:14.499Z,18.18
2022-10-18T02:38:28.695Z,18.20
2022-10-18T02:38:42.169Z,18.22
2022-10-18T02:39:00.287Z,18.23
2022-10-18T02:39:16.619Z,18.24
2022-10-18T02:39:32.454Z,18.24
2022-10-18T02:39:48.447Z,18.25
2022-10-18T02:40:01.368Z,18.22
2022-10-18T02:40:14.005Z,18.23
2022-10-18T02:40:26.778Z,18.17
2022-10-18T02:40:38.653Z,18.16
2022-10-18T02:40:51.170Z,18.16
2022-10-18T02:41:03.151Z,18.17
2022-10-18T02:41:26.207Z,18.17
2022-10-18T02:41:38.138Z,18.19
2022-10-18T02:41:50.102Z,18.19
2022-10-18T02:42:07.940Z,18.19
2022-10-18T02:42:19.842Z,18.20
2022-10-18T02:42:43.878Z,18.20
2022-10-18T02:42:57.994Z,18.15
2022-10-18T02:43:09.922Z,18.12
2022-10-18T02:43:25.085Z,18.09
2022-10-18T02:43:37.097Z,18.08
2022-10-18T02:43:48.989Z,18.07
2022-10-18T02:44:00.878Z,18.06
2022-10-18T02:44:12.955Z,18.07
2022-10-18T02:44:25.063Z,18.07
2022-10-18T02:44:38.588Z,18.09
2022-10-18T02:44:50.475Z,18.12
2022-10-18T02:45:03.352Z,18.10
2022-10-18T02:45:15.952Z,18.10
2022-10-18T02:45:27.975Z,18.13
2022-10-18T02:45:40.060Z,18.14
2022-10-18T02:45:52.246Z,18.14
2022-10-18T02:46:04.173Z,18.13
2022-10-18T02:46:16.241Z,18.08
2022-10-18T02:46:28.241Z,18.06
2022-10-18T02:46:40.888Z,18.08
2022-10-18T02:46:53.492Z,18.07
2022-10-18T02:47:06.925Z,18.10
2022-10-18T02:47:18.820Z,18.11
2022-10-18T02:47:31.116Z,18.13
2022-10-18T02:47:43.463Z,18.15
2022-10-18T02:47:55.363Z,18.07
2022-10-18T02:48:07.605Z,18.07
2022-10-18T02:48:19.498Z,18.08
2022-10-18T02:48:31.390Z,18.10
2022-10-18T02:48:43.296Z,18.10
2022-10-18T02:48:55.189Z,18.12
2022-10-18T02:49:07.199Z,18.09
2022-10-18T02:49:19.090Z,18.10
2022-10-18T02:49:31.187Z,18.11
2022-10-18T02:49:43.175Z,18.13
2022-10-18T02:49:55.051Z,18.14
2022-10-18T02:50:07.354Z,18.13
2022-10-18T02:50:19.337Z,18.11
2022-10-18T02:50:31.262Z,18.08
2022-10-18T02:50:43.138Z,18.08
2022-10-18T02:50:55.076Z,18.09
2022-10-18T02:51:06.973Z,18.10
2022-10-18T02:51:18.848Z,18.12
2022-10-18T02:51:30.972Z,18.13
2022-10-18T02:51:43.005Z,18.11
2022-10-18T02:51:54.915Z,18.09
2022-10-18T02:52:06.882Z,18.08
2022-10-18T02:52:18.787Z,18.06
2022-10-18T02:52:30.692Z,18.09
2022-10-18T02:52:42.769Z,18.08
2022-10-18T02:52:54.679Z,18.09
2022-10-18T02:53:06.568Z,18.10
2022-10-18T02:53:18.465Z,18.11
2022-10-18T02:53:30.382Z,18.12
2022-10-18T02:53:42.303Z,18.13
2022-10-18T02:53:54.166Z,18.11
2022-10-18T02:54:06.272Z,18.13
2022-10-18T02:54:18.179Z,18.11
2022-10-18T02:54:30.041Z,18.11
2022-10-18T02:54:41.959Z,18.15
2022-10-18T02:54:53.850Z,18.14
2022-10-18T02:55:07.136Z,18.16
2022-10-18T02:55:19.614Z,18.15
2022-10-18T02:55:31.606Z,18.16
2022-10-18T02:55:43.639Z,18.18
2022-10-18T02:55:55.573Z,18.15
2022-10-18T02:56:07.812Z,18.15
2022-10-18T02:56:19.714Z,18.16
2022-10-18T02:56:31.922Z,18.19
2022-10-18T02:56:43.858Z,18.18
2022-10-18T02:56:55.741Z,18.17
2022-10-18T02:57:08.453Z,18.19
2022-10-18T02:57:20.339Z,18.20
2022-10-18T02:57:32.865Z,18.19
2022-10-18T02:57:45.039Z,18.20
2022-10-18T02:57:56.925Z,18.21
2022-10-18T02:58:08.806Z,18.20
2022-10-18T02:58:20.674Z,18.21
2022-10-18T02:58:32.652Z,18.15
2022-10-18T02:58:44.557Z,18.15
2022-10-18T02:58:56.590Z,18.11
2022-10-18T02:59:08.539Z,18.01
2022-10-18T02:59:20.417Z,17.96
2022-10-18T02:59:32.300Z,17.93
2022-10-18T02:59:44.176Z,17.81
2022-10-18T02:59:56.400Z,17.82
2022-10-18T03:00:09.049Z,17.84
2022-10-18T03:00:21.006Z,17.84
2022-10-18T03:00:32.891Z,17.88
2022-10-18T03:00:44.813Z,17.89
2022-10-18T03:00:56.735Z,17.93
2022-10-18T03:01:08.653Z,17.98
2022-10-18T03:01:20.646Z,17.99
2022-10-18T03:01:33.323Z,18.02
2022-10-18T03:01:45.398Z,18.04
2022-10-18T03:01:57.356Z,18.05
2022-10-18T03:02:09.289Z,18.08
2022-10-18T03:02:21.173Z,18.08
2022-10-18T03:02:33.187Z,18.10
2022-10-18T03:02:45.086Z,18.09
2022-10-18T03:02:56.988Z,18.11
2022-10-18T03:03:08.937Z,18.14
2022-10-18T03:03:21.199Z,18.16
2022-10-18T03:03:33.096Z,18.18
2022-10-18T03:03:44.960Z,18.18
2022-10-18T03:03:57.688Z,18.20
2022-10-18T03:04:09.912Z,18.19
2022-10-18T03:04:21.881Z,18.16
2022-10-18T03:04:33.830Z,18.14
2022-10-18T03:04:45.707Z,18.13
2022-10-18T03:04:57.977Z,18.07
2022-10-18T03:05:09.938Z,18.06
2022-10-18T03:05:21.849Z,18.07
2022-10-18T03:05:33.718Z,18.08
2022-10-18T03:05:49.461Z,18.08
2022-10-18T03:06:01.378Z,18.08
2022-10-18T03:06:13.279Z,18.08
2022-10-18T03:06:25.275Z,18.09
2022-10-18T03:06:37.271Z,18.12
2022-10-18T03:06:49.153Z,18.11
2022-10-18T03:07:01.040Z,18.13
2022-10-18T03:07:13.020Z,18.13
2022-10-18T03:07:24.946Z,18.15
2022-10-18T03:07:36.868Z,18.16
2022-10-18T03:07:48.773Z,18.14
2022-10-18T03:08:00.653Z,18.15
2022-10-18T03:08:12.526Z,18.14
2022-10-18T03:08:24.987Z,18.10
2022-10-18T03:08:38.148Z,18.08
2022-10-18T03:08:50.074Z,18.08
2022-10-18T03:09:03.795Z,18.06
2022-10-18T03:09:15.872Z,18.07
2022-10-18T03:09:27.760Z,17.98
2022-10-18T03:09:39.646Z,18.01
2022-10-18T03:09:51.619Z,18.02
2022-10-18T03:10:03.749Z,18.02
2022-10-18T03:10:15.675Z,18.03
2022-10-18T03:10:27.563Z,18.02
2022-10-18T03:10:39.488Z,17.99
2022-10-18T03:10:51.508Z,18.00
2022-10-18T03:11:03.446Z,18.02
2022-10-18T03:11:15.316Z,18.02
2022-10-18T03:11:27.201Z,18.03
2022-10-18T03:11:39.076Z,18.04
2022-10-18T03:11:50.998Z,17.99
2022-10-18T03:12:02.984Z,17.98
2022-10-18T03:12:14.952Z,17.98
2022-10-18T03:12:26.837Z,17.96
2022-10-18T03:12:38.737Z,17.96
2022-10-18T03:12:50.646Z,17.90
2022-10-18T03:13:02.520Z,17.92
2022-10-18T03:13:14.509Z,17.92
2022-10-18T03:13:26.494Z,17.95
2022-10-18T03:13:38.443Z,17.97
2022-10-18T03:13:51.006Z,17.99
2022-10-18T03:14:02.992Z,17.98
2022-10-18T03:14:14.917Z,17.96
2022-10-18T03:14:26.838Z,17.94
2022-10-18T03:14:38.760Z,17.93
2022-10-18T03:14:50.678Z,17.91
2022-10-18T03:15:02.871Z,17.88
2022-10-18T03:15:14.820Z,17.90
2022-10-18T03:15:26.745Z,17.90
2022-10-18T03:15:38.710Z,17.92
2022-10-18T03:15:50.633Z,17.94
2022-10-18T03:16:02.612Z,17.95
2022-10-18T03:16:14.522Z,17.98
2022-10-18T03:16:26.433Z,17.98
2022-10-18T03:16:38.356Z,17.98
2022-10-18T03:16:50.296Z,17.99
2022-10-18T03:17:02.192Z,18.01
2022-10-18T03:17:14.133Z,18.03
2022-10-18T03:17:26.118Z,18.04
2022-10-18T03:17:38.025Z,18.03
2022-10-18T03:17:49.901Z,18.02
2022-10-18T03:18:01.810Z,18.03
2022-10-18T03:18:13.930Z,18.03
2022-10-18T03:18:25.907Z,18.01
2022-10-18T03:18:37.965Z,18.01
2022-10-18T03:18:49.877Z,18.00
2022-10-18T03:19:01.844Z,17.96
2022-10-18T03:19:13.875Z,17.98
2022-10-18T03:19:26.022Z,17.98
2022-10-18T03:19:38.689Z,17.96
2022-10-18T03:19:50.639Z,17.98